createdAt,value
2023-09-25T00:00:56.584Z,2.47
2023-09-25T00:03:25.552Z,2.47
2023-09-25T00:05:55.771Z,2.57
2023-09-25T00:08:24.529Z,3.10
2023-09-25T00:10:53.506Z,2.97
2023-09-25T00:13:22.555Z,2.63
2023-09-25T00:15:52.828Z,3.13
2023-09-25T00:18:21.719Z,2.90
2023-09-25T00:20:50.553Z,2.87
2023-09-25T00:23:19.367Z,2.63
2023-09-25T00:25:48.173Z,3.03
2023-09-25T00:28:16.913Z,2.47
2023-09-25T00:30:46.308Z,2.93
2023-09-25T00:33:16.836Z,2.63
2023-09-25T00:35:45.804Z,2.90
2023-09-25T00:38:15.288Z,3.10
2023-09-25T00:40:44.765Z,2.63
2023-09-25T00:43:14.566Z,2.93
2023-09-25T00:45:43.972Z,2.47
2023-09-25T00:48:22.152Z,2.80
2023-09-25T00:50:51.119Z,2.30
2023-09-25T00:53:19.951Z,2.50
2023-09-25T00:55:49.720Z,2.73
2023-09-25T00:58:19.178Z,2.67
2023-09-25T01:00:48.390Z,2.90
2023-09-25T01:03:17.303Z,2.70
2023-09-25T01:05:47.904Z,2.80
2023-09-25T01:08:16.713Z,2.90
2023-09-25T01:10:46.482Z,2.30
2023-09-25T01:13:16.363Z,2.17
2023-09-25T01:15:45.249Z,2.93
2023-09-25T01:18:14.629Z,2.53
2023-09-25T01:20:43.589Z,2.30
2023-09-25T01:23:13.763Z,2.70
2023-09-25T01:25:42.522Z,3.10
2023-09-25T01:28:11.562Z,2.13
2023-09-25T01:30:40.622Z,2.10
2023-09-25T01:33:09.704Z,2.40
2023-09-25T01:35:38.577Z,2.70
2023-09-25T01:38:07.657Z,2.60
2023-09-25T01:40:37.803Z,2.77
2023-09-25T01:43:06.537Z,3.17
2023-09-25T01:45:35.471Z,3.30
2023-09-25T01:48:04.595Z,2.30
2023-09-25T01:50:33.856Z,3.00
2023-09-25T01:53:04.546Z,2.87
2023-09-25T01:55:37.191Z,3.07
2023-09-25T01:58:08.326Z,2.43
2023-09-25T02:00:37.496Z,1.93
2023-09-25T02:03:07.444Z,2.43
2023-09-25T02:05:36.440Z,2.73
2023-09-25T02:08:05.943Z,2.57
2023-09-25T02:10:36.515Z,2.20
2023-09-25T02:13:06.963Z,2.30
2023-09-25T02:15:36.355Z,2.30
2023-09-25T02:18:07.221Z,2.80
2023-09-25T02:20:36.080Z,2.70
2023-09-25T02:23:04.967Z,2.33
2023-09-25T02:25:33.719Z,2.83
2023-09-25T02:28:02.400Z,2.40
2023-09-25T02:30:32.538Z,2.60
2023-09-25T02:33:01.370Z,2.77
2023-09-25T02:35:30.206Z,2.33
2023-09-25T02:37:58.983Z,2.50
2023-09-25T02:40:27.813Z,2.40
2023-09-25T02:42:56.610Z,2.70
2023-09-25T02:45:25.420Z,2.90
2023-09-25T02:47:55.663Z,2.60
2023-09-25T02:50:24.460Z,3.10
2023-09-25T02:52:53.141Z,2.70
2023-09-25T02:55:21.828Z,2.40
2023-09-25T02:57:50.594Z,2.40
2023-09-25T03:00:19.396Z,2.50
2023-09-25T03:02:48.190Z,2.80
2023-09-25T03:05:18.647Z,2.20
2023-09-25T03:07:47.695Z,2.50
2023-09-25T03:10:16.442Z,2.77
2023-09-25T03:12:45.291Z,2.63
2023-09-25T03:15:14.085Z,2.93
2023-09-25T03:17:42.738Z,2.63
2023-09-25T03:20:16.863Z,2.80
2023-09-25T03:22:47.895Z,2.50
2023-09-25T03:25:17.008Z,2.40
2023-09-25T03:27:45.903Z,1.80
2023-09-25T03:30:15.513Z,2.83
2023-09-25T03:32:44.624Z,2.30
2023-09-25T03:35:13.455Z,2.67
2023-09-25T03:37:42.313Z,3.60
2023-09-25T03:40:14.010Z,3.17
2023-09-25T03:42:43.205Z,3.20
2023-09-25T03:45:12.223Z,3.37
2023-09-25T03:47:41.189Z,3.60
2023-09-25T03:50:11.849Z,3.23
2023-09-25T03:52:40.548Z,3.70
2023-09-25T03:55:10.004Z,3.30
2023-09-25T03:57:40.143Z,3.73
2023-09-25T04:00:09.888Z,3.93
2023-09-25T04:02:38.615Z,3.60
2023-09-25T04:05:08.059Z,4.10
2023-09-25T04:07:36.796Z,3.60
2023-09-25T04:10:08.303Z,4.10
2023-09-25T04:12:37.053Z,3.30
2023-09-25T04:15:09.536Z,3.30
2023-09-25T04:17:40.340Z,3.73
2023-09-25T04:20:16.761Z,3.40
2023-09-25T04:22:46.851Z,3.13
2023-09-25T04:25:19.818Z,3.83
2023-09-25T04:27:49.804Z,3.73
2023-09-25T04:30:20.362Z,4.00
2023-09-25T04:32:54.987Z,4.20
2023-09-25T04:35:24.667Z,3.60
2023-09-25T04:37:55.014Z,3.73
2023-09-25T04:40:25.183Z,3.23
2023-09-25T04:42:54.852Z,3.30
2023-09-25T04:45:25.646Z,3.70
2023-09-25T04:47:54.933Z,3.60
2023-09-25T04:50:24.756Z,3.40
2023-09-25T04:52:54.260Z,3.50
2023-09-25T04:55:23.028Z,2.80
2023-09-25T04:57:52.090Z,3.30
2023-09-25T05:00:22.991Z,3.03
2023-09-25T05:02:54.035Z,2.83
2023-09-25T05:05:23.424Z,3.03
2023-09-25T05:07:53.881Z,3.03
2023-09-25T05:10:24.344Z,3.10
2023-09-25T05:12:53.810Z,2.80
2023-09-25T05:15:23.101Z,3.00
2023-09-25T05:17:53.689Z,2.80
2023-09-25T05:20:23.843Z,2.97
2023-09-25T05:22:54.066Z,3.13
2023-09-25T05:25:23.903Z,2.70
2023-09-25T05:27:54.200Z,2.50
2023-09-25T05:30:23.070Z,3.00
2023-09-25T05:32:53.935Z,2.93
2023-09-25T05:35:22.750Z,2.43
2023-09-25T05:37:51.564Z,2.90
2023-09-25T05:40:20.546Z,3.37
2023-09-25T05:42:50.395Z,2.90
2023-09-25T05:45:21.692Z,2.93
2023-09-25T05:47:50.735Z,3.95
2023-09-25T05:50:20.978Z,5.60
2023-09-25T05:52:49.739Z,5.10
2023-09-25T05:55:18.339Z,5.20
2023-09-25T05:57:47.515Z,5.07
2023-09-25T06:00:20.021Z,3.30
2023-09-25T06:02:49.228Z,3.73
2023-09-25T06:05:18.314Z,4.10
2023-09-25T06:07:48.502Z,3.63
2023-09-25T06:10:19.312Z,3.87
2023-09-25T06:12:48.974Z,4.00
2023-09-25T06:15:18.167Z,3.00
2023-09-25T06:17:48.797Z,4.13
2023-09-25T06:20:18.692Z,3.80
2023-09-25T06:22:49.888Z,4.50
2023-09-25T06:25:19.944Z,3.73
2023-09-25T06:27:49.674Z,4.50
2023-09-25T06:30:20.593Z,4.50
2023-09-25T06:32:51.084Z,4.80
2023-09-25T06:35:20.470Z,4.93
2023-09-25T06:37:50.638Z,5.33
2023-09-25T06:40:20.535Z,5.90
2023-09-25T06:42:49.405Z,6.77
2023-09-25T06:45:18.574Z,5.47
2023-09-25T06:47:48.611Z,6.50
2023-09-25T06:50:18.306Z,5.87
2023-09-25T06:52:47.143Z,6.67
2023-09-25T06:55:17.582Z,6.30
2023-09-25T06:57:47.040Z,6.13
2023-09-25T07:00:16.275Z,6.60
2023-09-25T07:02:45.272Z,6.40
2023-09-25T07:05:15.303Z,7.83
2023-09-25T07:07:44.547Z,7.40
2023-09-25T07:10:14.012Z,8.60
2023-09-25T07:12:44.415Z,6.33
2023-09-25T07:15:13.684Z,7.77
2023-09-25T07:17:42.759Z,8.50
2023-09-25T07:20:12.668Z,8.20
2023-09-25T07:22:41.428Z,8.97
2023-09-25T07:25:11.116Z,7.70
2023-09-25T07:27:40.014Z,7.77
2023-09-25T07:30:11.938Z,8.13
2023-09-25T07:32:43.610Z,7.67
2023-09-25T07:35:16.269Z,7.67
2023-09-25T07:37:45.705Z,8.03
2023-09-25T07:40:15.379Z,7.40
2023-09-25T07:42:45.028Z,7.93
2023-09-25T07:45:23.576Z,8.33
2023-09-25T07:47:53.593Z,6.70
2023-09-25T07:50:26.029Z,7.20
2023-09-25T07:52:56.094Z,6.67
2023-09-25T07:55:25.234Z,6.70
2023-09-25T07:57:54.557Z,7.63
2023-09-25T08:00:26.121Z,8.00
2023-09-25T08:02:55.690Z,6.10
2023-09-25T08:05:24.633Z,6.20
2023-09-25T08:07:56.786Z,6.83
2023-09-25T08:10:25.939Z,6.50
2023-09-25T08:12:54.899Z,6.77
2023-09-25T08:15:25.348Z,6.10
2023-09-25T08:17:54.205Z,6.20
2023-09-25T08:20:23.663Z,6.80
2023-09-25T08:22:53.055Z,6.23
2023-09-25T08:25:22.481Z,5.60
2023-09-25T08:27:52.689Z,5.47
2023-09-25T08:30:22.456Z,6.00
2023-09-25T08:32:53.607Z,6.07
2023-09-25T08:35:22.691Z,4.77
2023-09-25T08:37:51.413Z,6.33
2023-09-25T08:40:23.604Z,6.27
2023-09-25T08:43:05.059Z,6.23
2023-09-25T08:45:42.572Z,6.80
2023-09-25T08:48:13.366Z,5.30
2023-09-25T08:50:42.631Z,6.37
2023-09-25T08:53:11.515Z,4.73
2023-09-25T08:55:40.393Z,5.20
2023-09-25T08:58:10.018Z,4.93
2023-09-25T09:00:40.626Z,4.40
2023-09-25T09:03:09.698Z,4.40
2023-09-25T09:05:40.049Z,4.13
2023-09-25T09:08:09.441Z,4.43
2023-09-25T09:10:39.523Z,4.87
2023-09-25T09:13:11.586Z,4.13
2023-09-25T09:15:42.054Z,2.80
2023-09-25T09:18:25.679Z,3.20
2023-09-25T09:20:57.575Z,3.50
2023-09-25T09:23:43.750Z,2.37
2023-09-25T09:26:15.178Z,3.37
2023-09-25T09:28:44.825Z,2.90
2023-09-25T09:31:13.774Z,3.20
2023-09-25T09:33:43.483Z,3.03
2023-09-25T09:36:14.966Z,2.57
2023-09-25T09:38:44.701Z,2.43
2023-09-25T09:41:14.339Z,3.20
2023-09-25T09:43:43.439Z,2.53
2023-09-25T09:46:14.032Z,2.10
2023-09-25T09:48:45.288Z,2.30
2023-09-25T09:51:18.702Z,2.27
2023-09-25T09:53:47.781Z,2.50
2023-09-25T09:56:17.379Z,2.00
2023-09-25T09:58:48.925Z,2.60
2023-09-25T10:01:18.457Z,2.90
2023-09-25T10:03:47.625Z,2.63
2023-09-25T10:06:18.082Z,2.10
2023-09-25T10:09:00.979Z,2.27
2023-09-25T10:11:31.130Z,2.27
2023-09-25T10:14:04.910Z,2.50
2023-09-25T10:17:00.997Z,2.30
2023-09-25T10:19:50.152Z,2.80
2023-09-25T10:22:22.563Z,2.10
2023-09-25T10:25:01.394Z,2.07
2023-09-25T10:27:33.085Z,2.40
2023-09-25T10:30:12.482Z,2.50
2023-09-25T10:32:42.742Z,3.00
2023-09-25T10:35:40.039Z,2.70
2023-09-25T10:38:27.360Z,2.60
2023-09-25T10:41:01.978Z,3.07
2023-09-25T10:43:31.030Z,2.50
2023-09-25T10:45:59.969Z,2.80
2023-09-25T10:48:30.366Z,2.80
2023-09-25T10:50:59.433Z,2.40
2023-09-25T10:53:29.753Z,3.30
2023-09-25T10:55:58.746Z,2.90
2023-09-25T10:58:27.758Z,2.23
2023-09-25T11:00:57.156Z,2.50
2023-09-25T11:03:26.629Z,2.37
2023-09-25T11:05:55.784Z,2.53
2023-09-25T11:08:24.506Z,2.67
2023-09-25T11:10:55.546Z,2.07
2023-09-25T11:13:25.817Z,2.00
2023-09-25T11:15:54.660Z,2.80
2023-09-25T11:18:23.605Z,2.60
2023-09-25T11:20:53.368Z,2.23
2023-09-25T11:23:23.110Z,1.80
2023-09-25T11:25:54.622Z,2.60
2023-09-25T11:28:24.036Z,1.83
2023-09-25T11:30:53.739Z,2.47
2023-09-25T11:33:24.762Z,1.93
2023-09-25T11:35:55.701Z,2.07
2023-09-25T11:38:26.771Z,1.60
2023-09-25T11:40:57.203Z,2.23
2023-09-25T11:43:26.722Z,1.70
2023-09-25T11:45:56.796Z,1.90
2023-09-25T11:48:25.671Z,1.80
2023-09-25T11:50:54.486Z,1.80
2023-09-25T11:53:23.257Z,2.17
2023-09-25T11:55:52.577Z,2.07
2023-09-25T11:58:22.846Z,1.60
2023-09-25T12:00:51.754Z,2.30
2023-09-25T12:03:20.813Z,1.60
2023-09-25T12:05:50.287Z,1.67
2023-09-25T12:08:19.210Z,1.83
2023-09-25T12:10:48.066Z,1.70
2023-09-25T12:13:17.828Z,1.97
2023-09-25T12:15:48.026Z,1.63
2023-09-25T12:18:17.016Z,1.90
2023-09-25T12:20:46.082Z,2.57
2023-09-25T12:23:14.861Z,2.00
2023-09-25T12:25:43.759Z,2.07
2023-09-25T12:28:12.529Z,1.63
2023-09-25T12:30:41.452Z,1.83
2023-09-25T12:33:11.796Z,1.87
2023-09-25T12:35:42.806Z,2.00
2023-09-25T12:38:11.708Z,2.30
2023-09-25T12:40:40.565Z,1.60
2023-09-25T12:43:10.143Z,1.60
2023-09-25T12:45:39.489Z,1.93
2023-09-25T12:48:09.106Z,1.50
2023-09-25T12:50:39.410Z,1.43
2023-09-25T12:53:08.784Z,1.60
2023-09-25T12:55:37.492Z,1.40
2023-09-25T12:58:06.389Z,1.30
2023-09-25T13:00:35.202Z,1.20
2023-09-25T13:03:04.255Z,1.80
2023-09-25T13:05:34.466Z,1.87
2023-09-25T13:08:05.253Z,2.00
2023-09-25T13:10:34.103Z,1.70
2023-09-25T13:13:02.993Z,1.70
2023-09-25T13:15:31.856Z,1.53
2023-09-25T13:18:00.693Z,1.40
2023-09-25T13:20:29.521Z,1.30
2023-09-25T13:22:58.297Z,1.70
2023-09-25T13:25:28.527Z,1.70
2023-09-25T13:27:57.486Z,1.37
2023-09-25T13:30:26.337Z,1.50
2023-09-25T13:32:55.242Z,1.47
2023-09-25T13:35:24.699Z,1.57
2023-09-25T13:37:53.616Z,1.70
2023-09-25T13:40:23.051Z,1.40
2023-09-25T13:42:53.288Z,1.37
2023-09-25T13:45:23.072Z,1.67
2023-09-25T13:47:52.994Z,3.83
2023-09-25T13:50:23.679Z,1.70
2023-09-25T13:52:58.441Z,1.57
2023-09-25T13:55:28.779Z,1.53
2023-09-25T13:58:00.067Z,1.70
2023-09-25T14:00:31.806Z,1.20
2023-09-25T14:03:04.170Z,1.43
2023-09-25T14:05:37.637Z,1.20
2023-09-25T14:08:06.999Z,1.37
2023-09-25T14:10:39.012Z,1.13
2023-09-25T14:13:09.565Z,1.43
2023-09-25T14:15:38.819Z,3.63
2023-09-25T14:18:08.652Z,1.80
2023-09-25T14:20:38.885Z,1.27
2023-09-25T14:23:07.663Z,1.10
2023-09-25T14:25:36.492Z,1.10
2023-09-25T14:28:06.026Z,1.30
2023-09-25T14:30:36.753Z,1.60
2023-09-25T14:33:06.525Z,1.37
2023-09-25T14:35:35.981Z,1.30
2023-09-25T14:38:06.579Z,1.37
2023-09-25T14:40:36.120Z,1.60
2023-09-25T14:43:05.349Z,1.17
2023-09-25T14:45:34.156Z,1.27
2023-09-25T14:48:05.058Z,1.30
2023-09-25T14:50:33.850Z,1.33
2023-09-25T14:53:05.063Z,1.50
2023-09-25T14:55:45.806Z,1.37
2023-09-25T14:58:22.733Z,1.33
2023-09-25T15:00:56.962Z,1.40
2023-09-25T15:03:27.575Z,1.30
2023-09-25T15:05:56.784Z,1.33
2023-09-25T15:08:25.639Z,1.50
2023-09-25T15:10:54.980Z,1.20
2023-09-25T15:13:23.897Z,1.60
2023-09-25T15:15:52.857Z,1.23
2023-09-25T15:18:21.897Z,1.43
2023-09-25T15:20:52.182Z,1.50
2023-09-25T15:23:20.940Z,1.40
2023-09-25T15:25:49.716Z,1.63
2023-09-25T15:28:18.590Z,1.17
2023-09-25T15:30:47.474Z,1.40
2023-09-25T15:33:16.279Z,2.07
2023-09-25T15:35:45.148Z,2.43
2023-09-25T15:38:15.252Z,1.70
2023-09-25T15:40:44.698Z,1.60
2023-09-25T15:43:13.546Z,1.30
2023-09-25T15:45:42.458Z,1.80
2023-09-25T15:48:11.343Z,3.40
2023-09-25T15:50:40.248Z,1.73
2023-09-25T15:53:09.132Z,1.37
2023-09-25T15:55:39.450Z,1.83
2023-09-25T15:58:09.442Z,4.70
2023-09-25T16:00:38.844Z,1.60
2023-09-25T16:03:08.027Z,1.77
2023-09-25T16:05:36.913Z,1.37
2023-09-25T16:08:06.545Z,1.47
2023-09-25T16:10:35.337Z,1.97
2023-09-25T16:13:05.876Z,1.50
2023-09-25T16:15:35.346Z,1.47
2023-09-25T16:18:05.565Z,1.57
2023-09-25T16:20:36.594Z,1.60
2023-09-25T16:23:05.829Z,1.43
2023-09-25T16:25:34.602Z,2.50
2023-09-25T16:28:03.488Z,4.67
2023-09-25T16:30:33.594Z,1.87
2023-09-25T16:33:02.537Z,2.17
2023-09-25T16:35:31.365Z,1.60
2023-09-25T16:38:00.168Z,1.70
2023-09-25T16:40:28.959Z,1.30
2023-09-25T16:42:57.807Z,1.40
2023-09-25T16:45:26.804Z,1.90
2023-09-25T16:47:57.190Z,1.20
2023-09-25T16:50:26.161Z,1.50
2023-09-25T16:52:55.001Z,2.80
2023-09-25T16:55:23.789Z,2.17
2023-09-25T16:57:52.653Z,1.80
2023-09-25T17:00:22.120Z,1.43
2023-09-25T17:02:51.005Z,1.90
2023-09-25T17:05:21.707Z,1.60
2023-09-25T17:07:50.468Z,1.63
2023-09-25T17:10:19.554Z,2.10
2023-09-25T17:12:48.360Z,1.87
2023-09-25T17:15:17.410Z,1.60
2023-09-25T17:17:46.278Z,1.70
2023-09-25T17:20:15.279Z,2.30
2023-09-25T17:22:45.668Z,1.80
2023-09-25T17:25:15.177Z,1.70
2023-09-25T17:27:44.118Z,1.97
2023-09-25T17:30:14.015Z,2.10
2023-09-25T17:32:43.040Z,2.37
2023-09-25T17:35:12.650Z,1.80
2023-09-25T17:37:41.413Z,2.47
2023-09-25T17:40:13.040Z,2.90
2023-09-25T17:42:42.515Z,2.93
2023-09-25T17:45:11.985Z,2.90
2023-09-25T17:47:40.870Z,4.13
2023-09-25T17:50:10.607Z,4.03
2023-09-25T17:52:41.526Z,2.50
2023-09-25T17:55:11.876Z,3.40
2023-09-25T17:57:40.711Z,3.40
2023-09-25T18:00:11.223Z,3.67
2023-09-25T18:02:39.999Z,3.57
2023-09-25T18:05:10.209Z,3.50
2023-09-25T18:07:39.290Z,3.40
2023-09-25T18:10:09.148Z,3.10
2023-09-25T18:12:42.904Z,2.73
2023-09-25T18:15:17.743Z,3.67
2023-09-25T18:17:48.600Z,2.97
2023-09-25T18:20:17.654Z,2.50
2023-09-25T18:22:46.796Z,3.20
2023-09-25T18:25:16.786Z,4.17
2023-09-25T18:27:47.289Z,3.97
2023-09-25T18:30:16.116Z,4.63
2023-09-25T18:32:44.952Z,3.97
2023-09-25T18:35:14.075Z,4.77
2023-09-25T18:37:42.882Z,3.90
2023-09-25T18:40:12.755Z,4.10
2023-09-25T18:42:43.137Z,3.47
2023-09-25T18:45:13.557Z,4.63
2023-09-25T18:47:42.419Z,4.57
2023-09-25T18:50:11.946Z,4.73
2023-09-25T18:52:41.114Z,6.03
2023-09-25T18:55:10.313Z,4.30
2023-09-25T18:57:39.238Z,4.87
2023-09-25T19:00:09.929Z,4.77
2023-09-25T19:02:40.404Z,4.07
2023-09-25T19:05:10.198Z,3.90
2023-09-25T19:07:39.222Z,3.93
2023-09-25T19:10:08.848Z,3.50
2023-09-25T19:12:37.791Z,4.03
2023-09-25T19:15:08.050Z,4.47
2023-09-25T19:17:36.928Z,4.40
2023-09-25T19:20:11.441Z,4.07
2023-09-25T19:22:40.379Z,4.90
2023-09-25T19:25:10.896Z,4.30
2023-09-25T19:27:44.481Z,3.93
2023-09-25T19:30:14.508Z,3.50
2023-09-25T19:32:43.736Z,3.80
2023-09-25T19:35:14.156Z,3.50
2023-09-25T19:37:43.088Z,3.97
2023-09-25T19:40:12.964Z,4.20
2023-09-25T19:42:42.185Z,4.43
2023-09-25T19:45:12.423Z,3.80
2023-09-25T19:47:41.416Z,4.27
2023-09-25T19:50:10.823Z,3.90
2023-09-25T19:52:41.987Z,3.87
2023-09-25T19:55:11.256Z,4.10
2023-09-25T19:57:41.297Z,4.27
2023-09-25T20:00:12.835Z,4.07
2023-09-25T20:02:41.773Z,4.00
2023-09-25T20:05:10.947Z,4.70
2023-09-25T20:07:41.511Z,4.63
2023-09-25T20:10:11.258Z,3.97
2023-09-25T20:12:40.264Z,4.10
2023-09-25T20:15:10.186Z,4.00
2023-09-25T20:17:39.073Z,4.07
2023-09-25T20:20:09.111Z,4.63
2023-09-25T20:22:37.967Z,5.90
2023-09-25T20:25:09.908Z,5.47
2023-09-25T20:27:38.877Z,4.63
2023-09-25T20:30:09.454Z,4.10
2023-09-25T20:32:38.343Z,4.00
2023-09-25T20:35:07.993Z,4.70
2023-09-25T20:37:36.968Z,4.33
2023-09-25T20:40:09.130Z,3.83
2023-09-25T20:42:38.376Z,4.23
2023-09-25T20:45:08.912Z,4.47
2023-09-25T20:47:38.793Z,3.53
2023-09-25T20:50:08.290Z,6.43
2023-09-25T20:52:37.421Z,4.10
2023-09-25T20:55:09.022Z,3.30
2023-09-25T20:57:38.070Z,4.07
2023-09-25T21:00:13.799Z,4.53
2023-09-25T21:02:43.113Z,4.07
2023-09-25T21:05:13.503Z,3.80
2023-09-25T21:07:42.701Z,3.60
2023-09-25T21:10:14.174Z,3.30
2023-09-25T21:12:43.224Z,3.67
2023-09-25T21:15:12.601Z,4.00
2023-09-25T21:17:41.551Z,3.70
2023-09-25T21:20:12.222Z,4.10
2023-09-25T21:22:41.397Z,4.30
2023-09-25T21:25:10.872Z,3.93
2023-09-25T21:27:41.463Z,3.97
2023-09-25T21:30:12.554Z,4.00
2023-09-25T21:32:41.829Z,3.70
2023-09-25T21:35:11.025Z,4.00
2023-09-25T21:37:39.924Z,4.10
2023-09-25T21:40:11.617Z,3.70
2023-09-25T21:42:41.986Z,4.20
2023-09-25T21:45:11.768Z,4.10
2023-09-25T21:47:41.240Z,4.20
2023-09-25T21:50:11.172Z,6.77
2023-09-25T21:52:40.521Z,7.10
2023-09-25T21:55:10.287Z,6.97
2023-09-25T21:57:39.270Z,6.37
2023-09-25T22:00:15.138Z,4.60
2023-09-25T22:02:44.105Z,4.13
2023-09-25T22:05:14.469Z,3.80
2023-09-25T22:07:43.413Z,3.70
2023-09-25T22:10:13.903Z,3.90
2023-09-25T22:12:43.261Z,4.40
2023-09-25T22:15:13.704Z,3.80
2023-09-25T22:17:42.651Z,3.57
2023-09-25T22:20:18.636Z,4.10
2023-09-25T22:22:47.784Z,4.00
2023-09-25T22:25:17.468Z,3.67
2023-09-25T22:27:46.534Z,4.17
2023-09-25T22:30:17.027Z,4.07
2023-09-25T22:32:46.433Z,4.13
2023-09-25T22:35:15.401Z,4.13
2023-09-25T22:38:06.849Z,3.90
2023-09-25T22:40:36.647Z,4.00
2023-09-25T22:43:06.162Z,5.57
2023-09-25T22:45:36.565Z,4.23
2023-09-25T22:48:05.801Z,4.40
2023-09-25T22:50:35.736Z,4.20
2023-09-25T22:53:05.044Z,4.60
2023-09-25T22:55:33.778Z,4.30
2023-09-25T22:58:03.459Z,4.80
2023-09-25T23:00:33.435Z,4.40
2023-09-25T23:03:04.303Z,3.93
2023-09-25T23:05:33.190Z,3.90
2023-09-25T23:08:03.187Z,3.77
2023-09-25T23:10:31.934Z,4.27
2023-09-25T23:13:00.818Z,4.13
2023-09-25T23:15:29.703Z,3.87
2023-09-25T23:17:58.618Z,3.67
2023-09-25T23:20:29.632Z,4.33
2023-09-25T23:22:58.403Z,4.17
2023-09-25T23:25:28.527Z,6.70
2023-09-25T23:27:58.607Z,4.50
2023-09-25T23:30:27.498Z,4.67
2023-09-25T23:32:57.261Z,5.00
2023-09-25T23:35:26.334Z,4.53
2023-09-25T23:37:56.586Z,4.53
2023-09-25T23:40:26.478Z,4.50
2023-09-25T23:42:55.552Z,3.90
2023-09-25T23:45:24.804Z,4.73
2023-09-25T23:47:54.605Z,4.30
2023-09-25T23:50:23.641Z,3.87
2023-09-25T23:52:56.132Z,3.90
2023-09-25T23:55:25.027Z,4.37
2023-09-25T23:57:53.835Z,4.40
